createdAt,value
2023-04-10T00:00:42.148Z,63.29
2023-04-10T00:01:43.139Z,63.81
2023-04-10T00:02:43.315Z,63.50
2023-04-10T00:03:43.336Z,63.50
2023-04-10T00:04:43.212Z,63.60
2023-04-10T00:05:43.130Z,63.81
2023-04-10T00:06:43.135Z,63.50
2023-04-10T00:07:43.059Z,63.81
2023-04-10T00:08:43.041Z,63.81
2023-04-10T00:09:43.023Z,63.64
2023-04-10T00:10:43.013Z,64.04
2023-04-10T00:11:42.988Z,63.81
2023-04-10T00:12:43.071Z,63.81
2023-04-10T00:13:42.997Z,63.81
2023-04-10T00:14:42.974Z,63.94
2023-04-10T00:15:43.059Z,63.94
2023-04-10T00:16:43.034Z,64.15
2023-04-10T00:17:43.069Z,64.15
2023-04-10T00:18:42.923Z,64.15
2023-04-10T00:19:42.880Z,64.04
2023-04-10T00:20:42.917Z,64.04
2023-04-10T00:21:42.919Z,63.71
2023-04-10T00:22:42.867Z,63.71
2023-04-10T00:23:42.858Z,64.01
2023-04-10T00:24:42.815Z,63.50
2023-04-10T00:25:42.812Z,63.91
2023-04-10T00:26:42.824Z,63.91
2023-04-10T00:27:42.776Z,63.94
2023-04-10T00:28:42.882Z,63.91
2023-04-10T00:29:42.760Z,63.81
2023-04-10T00:30:42.738Z,63.81
2023-04-10T00:31:42.862Z,63.94
2023-04-10T00:32:42.739Z,63.84
2023-04-10T00:33:42.726Z,64.36
2023-04-10T00:34:42.720Z,64.04
2023-04-10T00:35:42.810Z,64.25
2023-04-10T00:36:42.694Z,63.91
2023-04-10T00:37:42.644Z,64.15
2023-04-10T00:38:42.841Z,64.15
2023-04-10T00:39:42.627Z,64.46
2023-04-10T00:40:42.698Z,64.15
2023-04-10T00:41:42.590Z,64.36
2023-04-10T00:42:42.639Z,64.15
2023-04-10T00:43:42.594Z,64.04
2023-04-10T00:44:42.563Z,64.32
2023-04-10T00:45:42.773Z,64.15
2023-04-10T00:46:42.543Z,64.04
2023-04-10T00:47:42.555Z,63.94
2023-04-10T00:48:42.541Z,64.15
2023-04-10T00:49:42.506Z,64.15
2023-04-10T00:50:42.479Z,64.04
2023-04-10T00:51:42.545Z,64.25
2023-04-10T00:52:42.471Z,64.25
2023-04-10T00:53:42.490Z,63.74
2023-04-10T00:54:42.431Z,63.94
2023-04-10T00:55:42.422Z,63.64
2023-04-10T00:56:42.408Z,64.15
2023-04-10T00:57:42.412Z,63.84
2023-04-10T00:58:42.391Z,63.74
2023-04-10T00:59:42.383Z,63.64
2023-04-10T01:00:42.351Z,64.15
2023-04-10T01:01:42.473Z,64.25
2023-04-10T01:02:42.428Z,63.84
2023-04-10T01:03:42.446Z,63.84
2023-04-10T01:04:42.305Z,64.36
2023-04-10T01:05:42.325Z,64.15
2023-04-10T01:06:42.280Z,64.36
2023-04-10T01:07:42.351Z,63.74
2023-04-10T01:08:42.235Z,63.74
2023-04-10T01:09:42.362Z,63.94
2023-04-10T01:10:42.240Z,63.94
2023-04-10T01:11:42.215Z,64.25
2023-04-10T01:12:42.239Z,64.46
2023-04-10T01:13:42.216Z,64.25
2023-04-10T01:14:42.163Z,64.25
2023-04-10T01:15:42.265Z,64.25
2023-04-10T01:16:42.174Z,63.94
2023-04-10T01:17:42.240Z,64.04
2023-04-10T01:18:42.111Z,64.25
2023-04-10T01:19:42.123Z,64.36
2023-04-10T01:20:42.114Z,64.36
2023-04-10T01:21:42.096Z,64.46
2023-04-10T01:22:42.077Z,64.56
2023-04-10T01:23:42.042Z,64.97
2023-04-10T01:24:42.025Z,64.76
2023-04-10T01:25:42.181Z,64.66
2023-04-10T01:26:42.033Z,64.66
2023-04-10T01:27:42.097Z,64.66
2023-04-10T01:28:42.000Z,64.56
2023-04-10T01:29:43.556Z,64.76
2023-04-10T01:30:42.010Z,65.00
2023-04-10T01:31:42.025Z,64.90
2023-04-10T01:32:41.968Z,65.00
2023-04-10T01:33:41.918Z,65.17
2023-04-10T01:34:42.093Z,65.11
2023-04-10T01:35:41.937Z,64.87
2023-04-10T01:36:42.012Z,64.90
2023-04-10T01:37:41.872Z,65.11
2023-04-10T01:38:41.867Z,65.11
2023-04-10T01:39:41.846Z,65.17
2023-04-10T01:40:41.846Z,64.90
2023-04-10T01:41:41.827Z,65.41
2023-04-10T01:42:43.263Z,65.20
2023-04-10T01:43:41.911Z,65.20
2023-04-10T01:44:41.790Z,65.20
2023-04-10T01:45:41.875Z,65.20
2023-04-10T01:46:41.839Z,65.41
2023-04-10T01:47:41.794Z,65.52
2023-04-10T01:48:41.734Z,65.62
2023-04-10T01:49:41.738Z,65.52
2023-04-10T01:50:41.798Z,65.72
2023-04-10T01:51:41.826Z,65.52
2023-04-10T01:52:41.680Z,65.41
2023-04-10T01:53:41.663Z,65.62
2023-04-10T01:54:41.644Z,65.65
2023-04-10T01:55:41.761Z,65.83
2023-04-10T01:56:41.661Z,65.41
2023-04-10T01:57:41.616Z,65.31
2023-04-10T01:58:41.623Z,65.62
2023-04-10T01:59:41.567Z,65.62
2023-04-10T02:00:41.797Z,65.52
2023-04-10T02:01:41.643Z,65.62
2023-04-10T02:02:41.693Z,65.41
2023-04-10T02:03:41.717Z,65.31
2023-04-10T02:04:41.636Z,65.41
2023-04-10T02:05:41.522Z,65.31
2023-04-10T02:06:41.637Z,65.31
2023-04-10T02:07:41.502Z,65.41
2023-04-10T02:08:41.472Z,65.72
2023-04-10T02:09:41.450Z,65.72
2023-04-10T02:10:41.562Z,65.52
2023-04-10T02:11:41.433Z,65.20
2023-04-10T02:12:41.443Z,65.72
2023-04-10T02:13:41.400Z,65.83
2023-04-10T02:14:41.422Z,65.52
2023-04-10T02:15:41.404Z,65.62
2023-04-10T02:16:41.473Z,65.52
2023-04-10T02:17:41.379Z,65.86
2023-04-10T02:18:41.362Z,65.83
2023-04-10T02:19:41.364Z,65.55
2023-04-10T02:20:41.340Z,65.92
2023-04-10T02:21:41.393Z,65.95
2023-04-10T02:22:41.307Z,65.62
2023-04-10T02:23:41.267Z,65.72
2023-04-10T02:24:41.290Z,65.52
2023-04-10T02:25:41.329Z,65.52
2023-04-10T02:26:41.240Z,65.92
2023-04-10T02:27:41.231Z,65.83
2023-04-10T02:28:41.209Z,65.62
2023-04-10T02:29:41.192Z,65.62
2023-04-10T02:30:41.312Z,65.83
2023-04-10T02:31:41.276Z,66.16
2023-04-10T02:32:41.216Z,65.92
2023-04-10T02:33:41.123Z,65.83
2023-04-10T02:34:41.124Z,65.95
2023-04-10T02:35:41.150Z,65.95
2023-04-10T02:36:41.163Z,65.95
2023-04-10T02:37:41.117Z,66.27
2023-04-10T02:38:41.078Z,66.27
2023-04-10T02:39:41.111Z,66.47
2023-04-10T02:40:41.068Z,66.37
2023-04-10T02:41:41.093Z,66.16
2023-04-10T02:42:41.047Z,66.06
2023-04-10T02:43:41.029Z,66.27
2023-04-10T02:44:41.021Z,66.27
2023-04-10T02:45:41.080Z,66.58
2023-04-10T02:46:41.009Z,66.47
2023-04-10T02:47:41.114Z,66.47
2023-04-10T02:48:40.942Z,66.88
2023-04-10T02:49:40.934Z,66.78
2023-04-10T02:50:40.916Z,66.88
2023-04-10T02:51:40.918Z,67.09
2023-04-10T02:52:40.910Z,67.22
2023-04-10T02:53:40.875Z,67.33
2023-04-10T02:54:40.937Z,67.43
2023-04-10T02:55:40.867Z,67.33
2023-04-10T02:56:40.854Z,67.30
2023-04-10T02:57:40.907Z,67.43
2023-04-10T02:58:40.838Z,67.33
2023-04-10T02:59:40.789Z,67.63
2023-04-10T03:00:40.794Z,67.74
2023-04-10T03:01:40.893Z,68.05
2023-04-10T03:02:40.855Z,68.08
2023-04-10T03:03:40.965Z,68.05
2023-04-10T03:04:40.775Z,67.84
2023-04-10T03:05:40.773Z,68.08
2023-04-10T03:06:40.706Z,67.77
2023-04-10T03:07:40.708Z,67.66
2023-04-10T03:08:40.731Z,67.66
2023-04-10T03:09:40.739Z,67.94
2023-04-10T03:10:40.712Z,67.84
2023-04-10T03:11:40.638Z,67.94
2023-04-10T03:12:40.650Z,68.39
2023-04-10T03:13:40.809Z,67.53
2023-04-10T03:14:40.607Z,67.74
2023-04-10T03:15:40.609Z,67.74
2023-04-10T03:16:40.682Z,67.53
2023-04-10T03:17:40.604Z,67.43
2023-04-10T03:18:40.573Z,67.33
2023-04-10T03:19:40.538Z,67.74
2023-04-10T03:20:41.100Z,67.53
2023-04-10T03:21:40.508Z,67.74
2023-04-10T03:22:40.496Z,67.94
2023-04-10T03:23:40.531Z,68.18
2023-04-10T03:24:40.539Z,68.59
2023-04-10T03:25:40.470Z,68.39
2023-04-10T03:26:40.455Z,68.49
2023-04-10T03:27:40.433Z,68.49
2023-04-10T03:28:40.467Z,68.18
2023-04-10T03:29:40.532Z,68.25
2023-04-10T03:30:40.394Z,68.05
2023-04-10T03:31:40.431Z,67.74
2023-04-10T03:32:40.373Z,67.53
2023-04-10T03:33:40.449Z,67.84
2023-04-10T03:34:40.454Z,68.18
2023-04-10T03:35:40.354Z,68.29
2023-04-10T03:36:40.318Z,68.49
2023-04-10T03:37:40.302Z,68.59
2023-04-10T03:38:40.383Z,68.49
2023-04-10T03:39:40.272Z,68.80
2023-04-10T03:40:40.251Z,68.70
2023-04-10T03:41:40.303Z,68.49
2023-04-10T03:42:40.231Z,68.80
2023-04-10T03:43:40.288Z,68.59
2023-04-10T03:44:40.211Z,68.18
2023-04-10T03:45:40.215Z,68.18
2023-04-10T03:46:40.267Z,68.29
2023-04-10T03:47:40.264Z,68.39
2023-04-10T03:48:40.294Z,68.49
2023-04-10T03:49:40.174Z,68.29
2023-04-10T03:50:40.154Z,68.39
2023-04-10T03:51:40.256Z,68.39
2023-04-10T03:52:40.113Z,68.70
2023-04-10T03:53:40.164Z,68.59
2023-04-10T03:54:40.070Z,68.49
2023-04-10T03:55:40.099Z,68.49
2023-04-10T03:56:40.081Z,68.80
2023-04-10T03:57:40.052Z,68.90
2023-04-10T03:58:40.077Z,68.90
2023-04-10T03:59:40.023Z,68.70
2023-04-10T04:00:40.132Z,69.01
2023-04-10T04:01:40.175Z,69.24
2023-04-10T04:02:40.036Z,69.45
2023-04-10T04:03:40.150Z,69.76
2023-04-10T04:04:40.067Z,69.45
2023-04-10T04:05:39.972Z,69.45
2023-04-10T04:06:39.948Z,69.35
2023-04-10T04:07:39.902Z,69.35
2023-04-10T04:08:39.927Z,69.11
2023-04-10T04:09:39.888Z,69.21
2023-04-10T04:10:39.947Z,69.31
2023-04-10T04:11:39.863Z,69.01
2023-04-10T04:12:39.843Z,68.90
2023-04-10T04:13:39.820Z,68.80
2023-04-10T04:14:39.832Z,68.80
2023-04-10T04:15:39.905Z,68.90
2023-04-10T04:16:39.841Z,68.80
2023-04-10T04:17:39.826Z,68.73
2023-04-10T04:18:39.755Z,69.11
2023-04-10T04:19:39.728Z,69.01
2023-04-10T04:20:39.682Z,69.11
2023-04-10T04:21:39.812Z,68.80
2023-04-10T04:22:39.664Z,68.80
2023-04-10T04:23:39.723Z,68.59
2023-04-10T04:24:39.642Z,68.90
2023-04-10T04:25:39.712Z,68.80
2023-04-10T04:26:39.630Z,68.80
2023-04-10T04:27:39.602Z,68.90
2023-04-10T04:28:39.621Z,68.90
2023-04-10T04:29:39.571Z,68.80
2023-04-10T04:30:39.593Z,69.04
2023-04-10T04:31:39.572Z,68.93
2023-04-10T04:32:39.633Z,69.01
2023-04-10T04:33:39.528Z,68.80
2023-04-10T04:34:39.506Z,68.49
2023-04-10T04:35:39.601Z,68.49
2023-04-10T04:36:39.470Z,68.80
2023-04-10T04:37:39.478Z,68.70
2023-04-10T04:38:39.464Z,68.49
2023-04-10T04:39:39.576Z,68.93
2023-04-10T04:40:39.448Z,68.93
2023-04-10T04:41:39.437Z,69.24
2023-04-10T04:42:39.417Z,69.14
2023-04-10T04:43:39.392Z,69.14
2023-04-10T04:44:39.380Z,68.93
2023-04-10T04:45:39.487Z,69.01
2023-04-10T04:46:39.351Z,69.04
2023-04-10T04:47:39.379Z,69.24
2023-04-10T04:48:39.346Z,69.35
2023-04-10T04:49:39.361Z,69.04
2023-04-10T04:50:39.372Z,69.04
2023-04-10T04:51:39.285Z,69.04
2023-04-10T04:52:39.270Z,69.45
2023-04-10T04:53:39.261Z,69.45
2023-04-10T04:54:39.285Z,69.35
2023-04-10T04:55:39.249Z,69.65
2023-04-10T04:56:39.214Z,69.35
2023-04-10T04:57:39.210Z,69.35
2023-04-10T04:58:39.194Z,69.24
2023-04-10T04:59:39.258Z,69.35
2023-04-10T05:00:39.175Z,69.45
2023-04-10T05:01:39.284Z,69.86
2023-04-10T05:02:39.248Z,69.96
2023-04-10T05:03:39.200Z,69.65
2023-04-10T05:04:39.156Z,69.65
2023-04-10T05:05:39.104Z,69.55
2023-04-10T05:06:39.074Z,69.76
2023-04-10T05:07:39.080Z,69.76
2023-04-10T05:08:39.265Z,69.65
2023-04-10T05:09:39.094Z,69.55
2023-04-10T05:10:39.138Z,69.35
2023-04-10T05:11:39.043Z,69.24
2023-04-10T05:12:39.089Z,69.35
2023-04-10T05:13:39.011Z,69.14
2023-04-10T05:14:39.113Z,69.14
2023-04-10T05:15:39.087Z,69.45
2023-04-10T05:16:39.007Z,69.55
2023-04-10T05:17:38.990Z,68.93
2023-04-10T05:18:38.983Z,69.04
2023-04-10T05:19:39.006Z,69.24
2023-04-10T05:20:38.917Z,69.21
2023-04-10T05:21:39.035Z,69.01
2023-04-10T05:22:38.889Z,68.93
2023-04-10T05:23:38.875Z,69.35
2023-04-10T05:24:39.035Z,68.80
2023-04-10T05:25:38.957Z,68.90
2023-04-10T05:26:39.195Z,69.01
2023-04-10T05:27:38.817Z,68.70
2023-04-10T05:28:38.912Z,68.59
2023-04-10T05:29:38.796Z,68.25
2023-04-10T05:30:38.859Z,67.94
2023-04-10T05:31:38.806Z,67.84
2023-04-10T05:32:38.758Z,67.74
2023-04-10T05:33:38.803Z,67.81
2023-04-10T05:34:38.715Z,67.60
2023-04-10T05:35:38.742Z,67.40
2023-04-10T05:36:38.717Z,66.99
2023-04-10T05:37:38.744Z,67.19
2023-04-10T05:38:38.672Z,67.19
2023-04-10T05:39:38.818Z,66.96
2023-04-10T05:40:38.653Z,66.85
2023-04-10T05:41:38.667Z,66.75
2023-04-10T05:42:38.613Z,66.75
2023-04-10T05:43:38.637Z,66.54
2023-04-10T05:44:38.723Z,66.58
2023-04-10T05:45:38.587Z,66.78
2023-04-10T05:46:38.672Z,66.67
2023-04-10T05:47:38.600Z,66.96
2023-04-10T05:48:38.558Z,66.75
2023-04-10T05:49:38.538Z,66.58
2023-04-10T05:50:38.641Z,66.88
2023-04-10T05:51:38.530Z,66.99
2023-04-10T05:52:38.587Z,67.09
2023-04-10T05:53:38.487Z,66.99
2023-04-10T05:54:38.537Z,66.88
2023-04-10T05:55:38.466Z,66.64
2023-04-10T05:56:38.453Z,66.64
2023-04-10T05:57:38.453Z,66.44
2023-04-10T05:58:38.403Z,66.64
2023-04-10T05:59:38.412Z,66.64
2023-04-10T06:00:38.434Z,66.24
2023-04-10T06:01:38.425Z,66.24
2023-04-10T06:02:38.519Z,66.64
2023-04-10T06:03:38.517Z,66.64
2023-04-10T06:04:38.533Z,66.82
2023-04-10T06:05:38.326Z,66.24
2023-04-10T06:06:38.330Z,66.54
2023-04-10T06:07:38.298Z,66.44
2023-04-10T06:08:38.288Z,66.44
2023-04-10T06:09:38.334Z,66.44
2023-04-10T06:10:38.268Z,66.03
2023-04-10T06:11:38.246Z,66.10
2023-04-10T06:12:38.227Z,66.20
2023-04-10T06:13:38.232Z,65.89
2023-04-10T06:14:38.287Z,66.10
2023-04-10T06:15:38.330Z,65.80
2023-04-10T06:16:38.237Z,65.48
2023-04-10T06:17:38.166Z,65.66
2023-04-10T06:18:38.176Z,65.56
2023-04-10T06:19:38.144Z,65.32
2023-04-10T06:20:38.246Z,65.22
2023-04-10T06:21:38.145Z,64.81
2023-04-10T06:22:38.122Z,65.01
2023-04-10T06:23:38.092Z,64.91
2023-04-10T06:24:38.083Z,64.50
2023-04-10T06:25:38.113Z,64.70
2023-04-10T06:26:38.303Z,64.19
2023-04-10T06:27:38.068Z,63.65
2023-04-10T06:28:38.027Z,63.65
2023-04-10T06:29:38.061Z,63.75
2023-04-10T06:30:37.991Z,63.54
2023-04-10T06:31:38.162Z,63.54
2023-04-10T06:32:38.061Z,63.31
2023-04-10T06:33:37.964Z,62.49
2023-04-10T06:34:37.967Z,62.70
2023-04-10T06:35:38.040Z,62.59
2023-04-10T06:36:37.916Z,62.59
2023-04-10T06:37:37.948Z,62.77
2023-04-10T06:38:38.024Z,61.54
2023-04-10T06:39:37.998Z,61.54
2023-04-10T06:40:37.868Z,61.41
2023-04-10T06:41:37.884Z,61.82
2023-04-10T06:42:37.863Z,61.82
2023-04-10T06:43:37.843Z,61.61
2023-04-10T06:44:37.824Z,61.18
2023-04-10T06:45:37.937Z,61.27
2023-04-10T06:46:37.826Z,61.27
2023-04-10T06:47:37.839Z,60.97
2023-04-10T06:48:37.782Z,60.66
2023-04-10T06:49:37.762Z,60.35
2023-04-10T06:50:37.837Z,60.56
2023-04-10T06:51:37.729Z,60.66
2023-04-10T06:52:37.769Z,60.35
2023-04-10T06:53:37.690Z,60.02
2023-04-10T06:54:37.687Z,59.30
2023-04-10T06:55:37.808Z,59.00
2023-04-10T06:56:37.683Z,59.20
2023-04-10T06:57:37.644Z,59.00
2023-04-10T06:58:37.625Z,59.68
2023-04-10T06:59:37.715Z,59.00
2023-04-10T07:00:37.657Z,59.41
2023-04-10T07:01:37.650Z,58.97
2023-04-10T07:02:37.597Z,58.56
2023-04-10T07:03:37.638Z,58.76
2023-04-10T07:04:37.553Z,58.86
2023-04-10T07:05:38.625Z,58.35
2023-04-10T07:06:37.559Z,58.76
2023-04-10T07:07:37.550Z,58.73
2023-04-10T07:08:37.508Z,58.29
2023-04-10T07:09:37.490Z,58.48
2023-04-10T07:10:37.527Z,57.04
2023-04-10T07:11:37.464Z,57.35
2023-04-10T07:12:37.451Z,57.25
2023-04-10T07:13:37.481Z,56.94
2023-04-10T07:14:37.447Z,56.84
2023-04-10T07:15:37.537Z,56.92
2023-04-10T07:16:37.467Z,55.97
2023-04-10T07:17:37.439Z,56.07
2023-04-10T07:18:37.378Z,55.46
2023-04-10T07:19:37.456Z,55.23
2023-04-10T07:20:37.345Z,54.90
2023-04-10T07:21:37.388Z,54.77
2023-04-10T07:22:37.323Z,53.98
2023-04-10T07:23:37.344Z,53.77
2023-04-10T07:24:43.783Z,54.11
2023-04-10T07:25:37.272Z,54.00
2023-04-10T07:26:37.268Z,53.49
2023-04-10T07:27:37.238Z,53.59
2023-04-10T07:28:37.237Z,54.18
2023-04-10T07:29:37.273Z,53.98
2023-04-10T07:30:37.195Z,53.98
2023-04-10T07:31:37.293Z,53.67
2023-04-10T07:32:37.321Z,54.28
2023-04-10T07:33:37.196Z,53.55
2023-04-10T07:34:37.169Z,53.31
2023-04-10T07:35:37.158Z,52.70
2023-04-10T07:36:37.137Z,53.31
2023-04-10T07:37:37.128Z,52.78
2023-04-10T07:38:37.132Z,52.68
2023-04-10T07:39:37.083Z,52.81
2023-04-10T07:40:37.092Z,53.64
2023-04-10T07:41:37.093Z,53.24
2023-04-10T07:42:37.056Z,52.96
2023-04-10T07:43:37.026Z,52.53
2023-04-10T07:44:37.116Z,52.70
2023-04-10T07:45:37.047Z,51.33
2023-04-10T07:46:37.003Z,51.05
2023-04-10T07:47:37.051Z,51.86
2023-04-10T07:48:36.978Z,51.53
2023-04-10T07:49:36.954Z,51.53
2023-04-10T07:50:36.964Z,51.33
2023-04-10T07:51:37.254Z,50.52
2023-04-10T07:52:36.916Z,50.21
2023-04-10T07:53:36.928Z,49.88
2023-04-10T07:54:36.898Z,49.78
2023-04-10T07:55:36.875Z,49.96
2023-04-10T07:56:36.906Z,49.02
2023-04-10T07:57:36.847Z,48.72
2023-04-10T07:58:36.842Z,48.82
2023-04-10T07:59:36.844Z,48.72
2023-04-10T08:00:36.838Z,48.08
2023-04-10T08:01:36.822Z,47.67
2023-04-10T08:02:36.975Z,48.36
2023-04-10T08:03:36.857Z,47.45
2023-04-10T08:04:36.860Z,47.45
2023-04-10T08:05:36.794Z,47.05
2023-04-10T08:06:36.722Z,47.66
2023-04-10T08:07:36.705Z,47.05
2023-04-10T08:08:36.708Z,47.25
2023-04-10T08:09:36.705Z,47.14
2023-04-10T08:10:36.703Z,47.78
2023-04-10T08:11:38.361Z,47.86
2023-04-10T08:12:36.709Z,47.43
2023-04-10T08:13:36.629Z,46.90
2023-04-10T08:14:36.618Z,46.82
2023-04-10T08:15:36.619Z,46.31
2023-04-10T08:16:36.633Z,46.33
2023-04-10T08:17:36.687Z,46.44
2023-04-10T08:18:36.606Z,45.42
2023-04-10T08:19:36.555Z,46.33
2023-04-10T08:20:36.538Z,46.80
2023-04-10T08:21:36.524Z,46.19
2023-04-10T08:22:36.593Z,45.70
2023-04-10T08:23:36.490Z,46.59
2023-04-10T08:24:36.492Z,45.68
2023-04-10T08:25:36.466Z,45.17
2023-04-10T08:26:36.499Z,45.76
2023-04-10T08:27:36.482Z,45.46
2023-04-10T08:28:36.458Z,45.13
2023-04-10T08:29:36.588Z,43.93
2023-04-10T08:30:36.468Z,45.05
2023-04-10T08:31:36.402Z,44.34
2023-04-10T08:32:36.430Z,45.54
2023-04-10T08:33:36.397Z,44.40
2023-04-10T08:34:36.348Z,43.99
2023-04-10T08:35:36.378Z,43.77
2023-04-10T08:36:36.334Z,43.55
2023-04-10T08:37:36.310Z,44.38
2023-04-10T08:38:36.292Z,44.96
2023-04-10T08:39:36.343Z,44.18
2023-04-10T08:40:36.328Z,43.98
2023-04-10T08:41:36.253Z,44.36
2023-04-10T08:42:36.262Z,44.36
2023-04-10T08:43:36.261Z,44.84
2023-04-10T08:44:36.238Z,43.32
2023-04-10T08:45:36.286Z,43.55
2023-04-10T08:46:36.264Z,44.18
2023-04-10T08:47:36.176Z,44.15
2023-04-10T08:48:36.183Z,43.55
2023-04-10T08:49:36.155Z,43.47
2023-04-10T08:50:36.162Z,45.21
2023-04-10T08:51:36.210Z,45.92
2023-04-10T08:52:36.107Z,44.68
2023-04-10T08:53:36.103Z,44.56
2023-04-10T08:54:36.127Z,43.77
2023-04-10T08:55:36.085Z,44.48
2023-04-10T08:56:36.067Z,44.89
2023-04-10T08:57:36.282Z,44.56
2023-04-10T08:58:36.033Z,43.55
2023-04-10T08:59:36.021Z,43.75
2023-04-10T09:00:36.013Z,43.43
2023-04-10T09:01:36.071Z,43.61
2023-04-10T09:02:36.120Z,43.89
2023-04-10T09:03:36.118Z,43.18
2023-04-10T09:04:36.042Z,43.97
2023-04-10T09:05:35.956Z,43.46
2023-04-10T09:06:35.932Z,42.55
2023-04-10T09:07:35.934Z,42.33
2023-04-10T09:08:35.910Z,43.52
2023-04-10T09:09:35.881Z,41.71
2023-04-10T09:10:35.933Z,41.69
2023-04-10T09:11:35.851Z,41.61
2023-04-10T09:12:35.891Z,42.72
2023-04-10T09:13:35.822Z,42.21
2023-04-10T09:14:35.828Z,41.81
2023-04-10T09:15:35.862Z,42.21
2023-04-10T09:16:35.857Z,42.82
2023-04-10T09:17:35.809Z,42.41
2023-04-10T09:18:35.773Z,42.43
2023-04-10T09:19:35.747Z,42.74
2023-04-10T09:20:35.766Z,42.60
2023-04-10T09:21:35.721Z,42.11
2023-04-10T09:22:35.749Z,42.82
2023-04-10T09:23:35.713Z,41.69
2023-04-10T09:24:35.813Z,41.75
2023-04-10T09:25:35.687Z,40.86
2023-04-10T09:26:35.699Z,41.05
2023-04-10T09:27:35.781Z,40.82
2023-04-10T09:28:35.627Z,41.13
2023-04-10T09:29:35.728Z,40.70
2023-04-10T09:30:35.608Z,40.91
2023-04-10T09:31:35.654Z,40.22
2023-04-10T09:32:35.627Z,41.35
2023-04-10T09:33:35.554Z,40.14
2023-04-10T09:34:35.548Z,39.83
2023-04-10T09:35:35.570Z,40.62
2023-04-10T09:36:35.564Z,41.20
2023-04-10T09:37:35.534Z,40.92
2023-04-10T09:38:35.508Z,41.13
2023-04-10T09:39:35.511Z,40.62
2023-04-10T09:40:35.478Z,40.42
2023-04-10T09:41:35.449Z,41.02
2023-04-10T09:42:35.512Z,41.22
2023-04-10T09:43:35.423Z,40.72
2023-04-10T09:44:35.411Z,40.00
2023-04-10T09:45:35.427Z,41.20
2023-04-10T09:46:35.443Z,41.31
2023-04-10T09:47:35.434Z,41.63
2023-04-10T09:48:35.436Z,41.41
2023-04-10T09:49:35.348Z,40.50
2023-04-10T09:50:38.701Z,40.70
2023-04-10T09:51:35.354Z,39.92
2023-04-10T09:52:35.352Z,40.14
2023-04-10T09:53:35.485Z,40.84
2023-04-10T09:54:35.313Z,41.27
2023-04-10T09:55:35.257Z,40.46
2023-04-10T09:56:35.252Z,39.25
2023-04-10T09:57:35.351Z,39.37
2023-04-10T09:58:35.269Z,41.08
2023-04-10T09:59:35.206Z,41.65
2023-04-10T10:00:35.267Z,40.82
2023-04-10T10:01:35.336Z,40.50
2023-04-10T10:02:35.281Z,39.41
2023-04-10T10:03:35.222Z,40.80
2023-04-10T10:04:35.201Z,40.80
2023-04-10T10:05:35.129Z,39.39
2023-04-10T10:06:35.177Z,38.97
2023-04-10T10:07:35.128Z,39.45
2023-04-10T10:08:35.104Z,40.06
2023-04-10T10:09:35.178Z,38.93
2023-04-10T10:10:35.068Z,37.65
2023-04-10T10:11:35.066Z,41.67
2023-04-10T10:12:35.115Z,39.84
2023-04-10T10:13:35.042Z,38.62
2023-04-10T10:14:35.025Z,39.14
2023-04-10T10:15:35.065Z,38.92
2023-04-10T10:16:35.053Z,37.91
2023-04-10T10:17:35.000Z,39.10
2023-04-10T10:18:35.077Z,39.30
2023-04-10T10:19:34.948Z,37.37
2023-04-10T10:20:36.516Z,36.85
2023-04-10T10:21:35.029Z,38.98
2023-04-10T10:22:34.944Z,40.59
2023-04-10T10:23:34.901Z,39.18
2023-04-10T10:24:34.976Z,37.87
2023-04-10T10:25:34.880Z,38.66
2023-04-10T10:26:34.869Z,38.04
2023-04-10T10:27:34.929Z,38.22
2023-04-10T10:28:34.940Z,36.67
2023-04-10T10:29:34.851Z,39.80
2023-04-10T10:30:34.832Z,38.70
2023-04-10T10:31:34.854Z,36.47
2023-04-10T10:32:35.005Z,37.87
2023-04-10T10:33:34.838Z,37.65
2023-04-10T10:34:34.754Z,36.45
2023-04-10T10:35:34.742Z,35.83
2023-04-10T10:36:34.741Z,34.91
2023-04-10T10:37:34.710Z,35.89
2023-04-10T10:38:34.717Z,37.00
2023-04-10T10:39:34.723Z,35.53
2023-04-10T10:40:34.683Z,34.92
2023-04-10T10:41:34.658Z,38.06
2023-04-10T10:42:34.674Z,39.08
2023-04-10T10:43:34.651Z,37.07
2023-04-10T10:44:34.622Z,40.53
2023-04-10T10:45:34.734Z,37.99
2023-04-10T10:46:34.596Z,41.33
2023-04-10T10:47:34.626Z,37.51
2023-04-10T10:48:34.650Z,37.47
2023-04-10T10:49:34.551Z,37.27
2023-04-10T10:50:34.549Z,37.65
2023-04-10T10:51:34.531Z,36.54
2023-04-10T10:52:34.623Z,36.55
2023-04-10T10:53:34.517Z,34.84
2023-04-10T10:54:34.669Z,36.75
2023-04-10T10:55:34.523Z,38.68
2023-04-10T10:56:34.512Z,35.86
2023-04-10T10:57:34.452Z,36.95
2023-04-10T10:58:34.582Z,36.83
2023-04-10T10:59:34.506Z,35.64
2023-04-10T11:00:34.409Z,38.96
2023-04-10T11:01:34.467Z,36.25
2023-04-10T11:02:34.636Z,35.75
2023-04-10T11:03:34.807Z,35.33
2023-04-10T11:04:34.426Z,36.25
2023-04-10T11:05:34.518Z,36.03
2023-04-10T11:06:34.448Z,36.21
2023-04-10T11:07:34.350Z,36.02
2023-04-10T11:08:34.394Z,36.61
2023-04-10T11:09:34.582Z,35.82
2023-04-10T11:10:35.222Z,34.44
2023-04-10T11:11:34.263Z,36.83
2023-04-10T11:12:34.325Z,36.41
2023-04-10T11:13:34.431Z,36.00
2023-04-10T11:14:34.336Z,35.60
2023-04-10T11:15:34.234Z,35.88
2023-04-10T11:16:34.352Z,36.26
2023-04-10T11:17:34.197Z,34.56
2023-04-10T11:18:34.241Z,36.32
2023-04-10T11:19:34.169Z,34.99
2023-04-10T11:20:34.218Z,36.48
2023-04-10T11:21:34.163Z,37.18
2023-04-10T11:22:34.173Z,35.66
2023-04-10T11:23:34.165Z,36.65
2023-04-10T11:24:34.146Z,35.44
2023-04-10T11:25:34.103Z,35.53
2023-04-10T11:26:34.069Z,35.16
2023-04-10T11:27:34.076Z,33.42
2023-04-10T11:28:34.090Z,34.12
2023-04-10T11:29:34.024Z,35.73
2023-04-10T11:30:34.106Z,36.73
2023-04-10T11:31:34.058Z,37.12
2023-04-10T11:32:34.021Z,35.50
2023-04-10T11:33:33.996Z,35.19
2023-04-10T11:34:34.028Z,36.38
2023-04-10T11:35:34.041Z,37.57
2023-04-10T11:36:34.452Z,37.88
2023-04-10T11:37:33.904Z,34.74
2023-04-10T11:38:33.914Z,38.00
2023-04-10T11:39:34.110Z,36.23
2023-04-10T11:40:33.883Z,35.35
2023-04-10T11:41:33.883Z,36.43
2023-04-10T11:42:33.912Z,36.43
2023-04-10T11:43:33.855Z,36.02
2023-04-10T11:44:33.860Z,36.02
2023-04-10T11:45:33.925Z,39.32
2023-04-10T11:46:33.929Z,37.48
2023-04-10T11:47:33.830Z,37.68
2023-04-10T11:48:34.250Z,37.07
2023-04-10T11:49:34.835Z,36.65
2023-04-10T11:50:33.756Z,35.85
2023-04-10T11:51:33.734Z,35.64
2023-04-10T11:52:33.721Z,35.06
2023-04-10T11:53:33.762Z,37.24
2023-04-10T11:54:33.756Z,38.36
2023-04-10T11:55:33.669Z,37.94
2023-04-10T11:56:33.776Z,36.30
2023-04-10T11:57:33.666Z,35.68
2023-04-10T11:58:33.667Z,35.96
2023-04-10T11:59:33.902Z,34.64
2023-04-10T12:00:33.603Z,34.23
2023-04-10T12:01:33.663Z,35.68
2023-04-10T12:02:33.738Z,34.19
2023-04-10T12:03:33.652Z,34.98
2023-04-10T12:04:33.790Z,34.08
2023-04-10T12:05:33.556Z,34.86
2023-04-10T12:06:33.606Z,34.46
2023-04-10T12:07:33.511Z,34.05
2023-04-10T12:08:33.601Z,34.16
2023-04-10T12:09:33.526Z,33.54
2023-04-10T12:10:33.501Z,33.34
2023-04-10T12:11:33.515Z,33.78
2023-04-10T12:12:33.484Z,34.08
2023-04-10T12:13:33.450Z,35.06
2023-04-10T12:14:33.474Z,35.25
2023-04-10T12:15:33.434Z,35.21
2023-04-10T12:16:33.400Z,37.90
2023-04-10T12:17:33.646Z,37.08
2023-04-10T12:18:33.367Z,39.37
2023-04-10T12:19:33.470Z,34.14
2023-04-10T12:20:33.340Z,38.40
2023-04-10T12:21:33.384Z,33.20
2023-04-10T12:22:33.468Z,32.88
2023-04-10T12:23:33.302Z,31.88
2023-04-10T12:24:33.315Z,31.26
2023-04-10T12:25:33.307Z,32.15
2023-04-10T12:26:33.265Z,31.90
2023-04-10T12:27:33.252Z,28.20
2023-04-10T12:28:33.278Z,31.93
2023-04-10T12:29:33.270Z,31.37
2023-04-10T12:30:33.263Z,32.53
2023-04-10T12:31:33.371Z,34.38
2023-04-10T12:32:33.340Z,38.63
2023-04-10T12:33:33.267Z,33.26
2023-04-10T12:34:33.184Z,33.58
2023-04-10T12:35:33.197Z,41.82
2023-04-10T12:36:33.133Z,33.93
2023-04-10T12:37:33.129Z,40.95
2023-04-10T12:38:33.183Z,33.76
2023-04-10T12:39:33.140Z,30.51
2023-04-10T12:40:33.118Z,31.60
2023-04-10T12:41:33.192Z,32.90
2023-04-10T12:42:33.217Z,34.09
2023-04-10T12:43:33.257Z,31.76
2023-04-10T12:44:33.139Z,37.79
2023-04-10T12:45:33.033Z,32.69
2023-04-10T12:46:33.098Z,29.88
2023-04-10T12:47:33.157Z,32.96
2023-04-10T12:48:32.996Z,34.74
2023-04-10T12:49:33.239Z,31.92
2023-04-10T12:50:32.982Z,30.62
2023-04-10T12:51:32.958Z,28.60
2023-04-10T12:52:32.940Z,29.58